Time;durP1;ratioP1;P1;durP2;ratioP2;P2;SDS_P1;SDS_P2;PMS_P1;PMS_P2;Temp;Humidity;BMP_temperature;BMP_pressure;BME280_temperature;BME280_humidity;BME280_pressure;Samples;Min_cycle;Max_cycle;Signal;HPM_P1;HPM_P2
2022/06/01 00:02:02;;;;;;;;;;;19.20;64.20;;;;;;5031392;28;1345;-68
2022/06/01 00:04:28;;;;;;;;;;;19.20;64.30;;;;;;5036351;28;1364;-68
2022/06/01 00:06:53;;;;;;;;;;;19.20;64.20;;;;;;5032428;28;1404;-68
2022/06/01 00:09:19;;;;;;;;;;;19.20;64.30;;;;;;5032495;28;1420;-68
2022/06/01 00:11:44;;;;;;;;;;;19.20;64.30;;;;;;5032192;28;1425;-68
2022/06/01 00:14:10;;;;;;;;;;;19.20;64.30;;;;;;5032515;28;2290;-68
2022/06/01 00:16:35;;;;;;;;;;;19.20;64.30;;;;;;5032621;28;1317;-68
2022/06/01 00:19:01;;;;;;;;;;;19.20;64.30;;;;;;5043262;28;1392;-68
2022/06/01 00:21:26;;;;;;;;;;;19.20;64.30;;;;;;5032078;28;1335;-68
2022/06/01 00:23:52;;;;;;;;;;;19.20;64.30;;;;;;5048058;28;1298;-68
2022/06/01 00:26:17;;;;;;;;;;;19.20;64.40;;;;;;5032366;28;1461;-68
2022/06/01 00:28:42;;;;;;;;;;;19.20;64.40;;;;;;5032531;28;1321;-68
2022/06/01 00:31:11;;;;;;;;;;;19.20;64.40;;;;;;5027525;28;1347;-68
2022/06/01 00:33:36;;;;;;;;;;;19.20;64.40;;;;;;5027031;28;1965;-68
2022/06/01 00:36:03;;;;;;;;;;;19.20;64.40;;;;;;5047428;28;1075;-68
2022/06/01 00:38:28;;;;;;;;;;;19.20;64.40;;;;;;5032544;28;1392;-68
2022/06/01 00:40:54;;;;;;;;;;;19.20;64.40;;;;;;5051195;28;1294;-68
2022/06/01 00:43:26;;;;;;;;;;;19.20;64.40;;;;;;5036007;28;1353;-68
2022/06/01 00:45:52;;;;;;;;;;;19.20;64.50;;;;;;5051510;28;1076;-68
2022/06/01 00:48:18;;;;;;;;;;;19.20;64.40;;;;;;5035961;28;964;-68
2022/06/01 00:50:43;;;;;;;;;;;19.20;64.50;;;;;;5050807;28;1349;-68
2022/06/01 00:53:19;;;;;;;;;;;19.20;64.50;;;;;;5051232;28;1959;-68
2022/06/01 00:55:49;;;;;;;;;;;19.20;64.50;;;;;;5051468;28;1045;-68
2022/06/01 00:58:15;;;;;;;;;;;19.20;64.50;;;;;;5035714;28;1379;-68
2022/06/01 01:00:41;;;;;;;;;;;19.20;64.50;;;;;;5050916;28;1334;-68
2022/06/01 01:03:07;;;;;;;;;;;19.20;64.50;;;;;;5055731;28;1369;-68
2022/06/01 01:05:35;;;;;;;;;;;19.20;64.50;;;;;;5050961;28;1319;-68
2022/06/01 01:08:02;;;;;;;;;;;19.20;64.50;;;;;;5050751;28;1334;-68
2022/06/01 01:10:28;;;;;;;;;;;19.20;64.50;;;;;;5050509;28;1328;-68
2022/06/01 01:12:57;;;;;;;;;;;19.20;64.50;;;;;;5035488;28;1910;-68
2022/06/01 01:15:26;;;;;;;;;;;19.20;64.60;;;;;;5050472;28;1288;-68
2022/06/01 01:17:52;;;;;;;;;;;19.20;64.60;;;;;;5052073;28;1263;-68
2022/06/01 01:20:18;;;;;;;;;;;19.20;64.70;;;;;;5042675;28;1372;-68
2022/06/01 01:22:49;;;;;;;;;;;19.20;64.70;;;;;;5034410;28;1403;-68
2022/06/01 01:25:16;;;;;;;;;;;19.20;65.40;;;;;;5035607;28;1226;-68
2022/06/01 01:27:42;;;;;;;;;;;19.20;64.60;;;;;;5050698;28;1237;-68
2022/06/01 01:30:23;;;;;;;;;;;19.20;65.40;;;;;;5034919;28;1268;-68
2022/06/01 01:32:49;;;;;;;;;;;19.20;64.70;;;;;;5024376;28;1960;-68
2022/06/01 01:35:14;;;;;;;;;;;19.20;64.70;;;;;;5035016;28;1464;-68
2022/06/01 01:37:40;;;;;;;;;;;19.20;65.40;;;;;;5035165;28;1849;-68
2022/06/01 01:40:05;;;;;;;;;;;19.20;64.70;;;;;;5034594;28;1378;-68
2022/06/01 01:42:31;;;;;;;;;;;19.20;64.70;;;;;;5050440;28;1098;-67
2022/06/01 01:44:58;;;;;;;;;;;19.20;64.70;;;;;;5034756;28;1302;-68
2022/06/01 01:47:23;;;;;;;;;;;19.20;64.70;;;;;;5034920;28;1329;-68
2022/06/01 01:49:49;;;;;;;;;;;19.20;64.70;;;;;;5033766;28;1327;-68
2022/06/01 01:52:16;;;;;;;;;;;19.20;64.70;;;;;;5034268;28;1138;-68
2022/06/01 01:54:47;;;;;;;;;;;19.20;64.80;;;;;;5033431;28;1890;-68
2022/06/01 01:57:15;;;;;;;;;;;19.20;64.70;;;;;;5050089;28;1281;-68
2022/06/01 01:59:44;;;;;;;;;;;19.20;64.80;;;;;;5034360;28;1362;-68
2022/06/01 02:02:21;;;;;;;;;;;19.20;64.80;;;;;;5034559;28;1298;-68
2022/06/01 02:07:49;;;;;;;;;;;19.20;64.80;;;;;;5047666;28;1254;-68
2022/06/01 02:12:41;;;;;;;;;;;19.20;64.80;;;;;;5076628;22;2065;-75
2022/06/01 02:15:07;;;;;;;;;;;19.20;64.80;;;;;;5036296;28;1282;-75
2022/06/01 02:17:34;;;;;;;;;;;19.20;64.80;;;;;;5053039;28;1175;-73
2022/06/01 02:20:10;;;;;;;;;;;19.20;64.80;;;;;;5052742;28;1221;-75
2022/06/01 02:22:36;;;;;;;;;;;19.20;64.90;;;;;;5052867;28;1211;-76
2022/06/01 02:25:02;;;;;;;;;;;19.20;64.90;;;;;;5036332;28;1518;-75
2022/06/01 02:27:27;;;;;;;;;;;19.20;64.90;;;;;;5032921;28;1215;-75
2022/06/01 02:30:12;;;;;;;;;;;19.20;64.90;;;;;;5043447;28;1087;-73
2022/06/01 02:32:37;;;;;;;;;;;19.20;64.90;;;;;;5052510;28;1898;-75
2022/06/01 02:35:04;;;;;;;;;;;19.20;64.90;;;;;;5052618;28;1067;-76
2022/06/01 02:37:29;;;;;;;;;;;19.20;64.90;;;;;;5052613;28;1104;-75
2022/06/01 02:39:55;;;;;;;;;;;19.20;64.90;;;;;;5052561;28;1166;-75
2022/06/01 02:42:26;;;;;;;;;;;19.20;64.90;;;;;;5052413;28;1320;-75
2022/06/01 02:44:53;;;;;;;;;;;19.20;64.90;;;;;;5052626;28;1087;-75
2022/06/01 02:47:18;;;;;;;;;;;19.20;65.00;;;;;;5035733;28;1425;-75
2022/06/01 02:49:44;;;;;;;;;;;19.20;65.00;;;;;;5053708;28;1305;-75
2022/06/01 02:52:09;;;;;;;;;;;19.20;65.00;;;;;;5053414;28;1216;-76
2022/06/01 02:54:35;;;;;;;;;;;19.20;65.00;;;;;;5053661;28;1951;-75
2022/06/01 02:57:00;;;;;;;;;;;19.20;65.00;;;;;;5053556;28;1090;-75
2022/06/01 02:59:26;;;;;;;;;;;19.20;65.00;;;;;;5068869;28;979;-75
2022/06/01 03:01:52;;;;;;;;;;;19.20;65.00;;;;;;5052619;28;1221;-74
2022/06/01 03:04:17;;;;;;;;;;;19.20;65.00;;;;;;5053478;28;1138;-75
2022/06/01 03:06:43;;;;;;;;;;;19.20;65.00;;;;;;5052179;28;1375;-75
2022/06/01 03:09:10;;;;;;;;;;;19.20;65.10;;;;;;5052589;28;1021;-75
2022/06/01 03:11:36;;;;;;;;;;;19.20;65.00;;;;;;5053124;28;1372;-75
2022/06/01 03:14:02;;;;;;;;;;;19.20;65.00;;;;;;5051751;28;1965;-76
2022/06/01 03:16:27;;;;;;;;;;;19.20;65.00;;;;;;5052957;28;1126;-75
2022/06/01 03:18:53;;;;;;;;;;;19.20;65.00;;;;;;5052918;28;1165;-73
2022/06/01 03:21:19;;;;;;;;;;;19.20;65.00;;;;;;5051661;28;1304;-75
2022/06/01 03:23:45;;;;;;;;;;;19.20;65.10;;;;;;5041668;28;1203;-75
2022/06/01 03:26:12;;;;;;;;;;;19.20;65.10;;;;;;5045063;28;1227;-75
2022/06/01 03:28:38;;;;;;;;;;;19.20;65.10;;;;;;5045388;28;1130;-75
2022/06/01 03:31:05;;;;;;;;;;;19.20;65.10;;;;;;5047265;28;1389;-75
2022/06/01 03:33:31;;;;;;;;;;;19.20;65.10;;;;;;5045275;28;1961;-75
2022/06/01 03:35:57;;;;;;;;;;;19.20;65.10;;;;;;5052834;28;1106;-75
2022/06/01 03:38:22;;;;;;;;;;;19.20;65.10;;;;;;5052872;28;1090;-75
2022/06/01 03:40:48;;;;;;;;;;;19.20;65.10;;;;;;5051247;28;1357;-74
2022/06/01 03:43:13;;;;;;;;;;;19.20;65.10;;;;;;5051693;28;1480;-75
2022/06/01 03:48:23;;;;;;;;;;;19.20;65.20;;;;;;5052713;28;1067;-75
2022/06/01 03:50:49;;;;;;;;;;;19.20;65.20;;;;;;5051205;28;1276;-75
2022/06/01 03:53:14;;;;;;;;;;;19.20;65.20;;;;;;5052616;28;1910;-75
2022/06/01 03:55:40;;;;;;;;;;;19.20;65.50;;;;;;5051349;28;1056;-75
2022/06/01 03:58:06;;;;;;;;;;;19.20;65.20;;;;;;5052609;28;1395;-75
2022/06/01 04:00:31;;;;;;;;;;;19.20;65.20;;;;;;5052267;28;1260;-75
2022/06/01 04:02:57;;;;;;;;;;;19.20;65.20;;;;;;5051267;28;1315;-74
2022/06/01 04:05:22;;;;;;;;;;;19.20;65.20;;;;;;5052650;28;1087;-74
2022/06/01 04:07:48;;;;;;;;;;;19.20;65.20;;;;;;5051376;28;1296;-76
2022/06/01 04:10:13;;;;;;;;;;;19.20;65.20;;;;;;5051133;28;1101;-75
2022/06/01 04:12:39;;;;;;;;;;;19.20;65.20;;;;;;5051088;28;1973;-73
2022/06/01 04:15:04;;;;;;;;;;;19.20;65.20;;;;;;5050990;28;1251;-75
2022/06/01 04:17:30;;;;;;;;;;;19.20;65.20;;;;;;5053394;28;1199;-75
2022/06/01 04:19:55;;;;;;;;;;;19.20;65.20;;;;;;5056219;28;1182;-75
2022/06/01 04:22:21;;;;;;;;;;;19.20;65.30;;;;;;5054853;28;1193;-75
2022/06/01 04:24:46;;;;;;;;;;;19.20;65.30;;;;;;5055218;28;1163;-75
2022/06/01 04:27:11;;;;;;;;;;;19.20;65.30;;;;;;5041928;28;1127;-75
2022/06/01 04:29:37;;;;;;;;;;;19.20;65.20;;;;;;5054839;28;1080;-72
2022/06/01 04:32:12;;;;;;;;;;;19.20;65.20;;;;;;5045628;28;1482;-75
2022/06/01 04:34:37;;;;;;;;;;;19.20;65.30;;;;;;5054898;28;1973;-73
2022/06/01 04:37:03;;;;;;;;;;;19.20;65.30;;;;;;5056354;28;1131;-76
2022/06/01 04:39:29;;;;;;;;;;;19.20;65.30;;;;;;5054880;28;1295;-75
2022/06/01 04:41:54;;;;;;;;;;;19.20;65.30;;;;;;5054411;28;1280;-75
2022/06/01 04:44:20;;;;;;;;;;;19.20;65.30;;;;;;5038287;28;1080;-75
2022/06/01 04:46:45;;;;;;;;;;;19.20;65.30;;;;;;5054500;28;1330;-75
2022/06/01 04:49:10;;;;;;;;;;;19.20;65.30;;;;;;5055997;28;1059;-75
2022/06/01 04:51:36;;;;;;;;;;;19.20;65.30;;;;;;5054302;28;1224;-75
2022/06/01 04:54:01;;;;;;;;;;;19.20;65.30;;;;;;5054846;28;1902;-75
2022/06/01 04:56:27;;;;;;;;;;;19.20;65.30;;;;;;5055879;28;1078;-74
2022/06/01 04:58:52;;;;;;;;;;;19.20;65.30;;;;;;5055764;28;1055;-75
2022/06/01 05:01:18;;;;;;;;;;;19.20;65.30;;;;;;5055484;28;1339;-75
2022/06/01 05:03:43;;;;;;;;;;;19.20;65.40;;;;;;5051404;28;1107;-72
2022/06/01 05:06:08;;;;;;;;;;;19.20;65.40;;;;;;5051055;28;1189;-75
2022/06/01 05:08:34;;;;;;;;;;;19.20;65.10;;;;;;5037671;28;1111;-75
2022/06/01 05:10:59;;;;;;;;;;;19.20;65.00;;;;;;5054887;28;1256;-74
2022/06/01 05:13:25;;;;;;;;;;;19.20;64.90;;;;;;5054268;28;1902;-75
2022/06/01 05:15:51;;;;;;;;;;;19.20;64.90;;;;;;5054231;28;1150;-75
2022/06/01 05:18:16;;;;;;;;;;;19.20;64.90;;;;;;5055528;28;1138;-74
2022/06/01 05:20:42;;;;;;;;;;;19.20;64.90;;;;;;5055070;28;1221;-75
2022/06/01 05:23:07;;;;;;;;;;;19.20;64.90;;;;;;5046700;28;1677;-75
2022/06/01 05:25:33;;;;;;;;;;;19.20;65.00;;;;;;5031466;28;1157;-75
2022/06/01 05:27:58;;;;;;;;;;;19.20;65.00;;;;;;5049754;28;1105;-73
2022/06/01 05:30:24;;;;;;;;;;;19.20;65.00;;;;;;5048363;28;1307;-72
2022/06/01 05:32:49;;;;;;;;;;;19.20;65.10;;;;;;5029290;28;1965;-73
2022/06/01 05:35:14;;;;;;;;;;;19.20;65.10;;;;;;5032181;28;1422;-72
2022/06/01 05:37:40;;;;;;;;;;;19.20;65.20;;;;;;5053387;28;1726;-73
2022/06/01 05:40:06;;;;;;;;;;;19.20;65.20;;;;;;5053661;28;1287;-72
2022/06/01 05:42:31;;;;;;;;;;;19.20;65.20;;;;;;5053521;28;1709;-73
2022/06/01 05:44:57;;;;;;;;;;;19.20;65.20;;;;;;5053660;28;1096;-74
2022/06/01 05:47:22;;;;;;;;;;;19.20;65.20;;;;;;5055114;28;1289;-74
2022/06/01 05:49:48;;;;;;;;;;;19.20;65.20;;;;;;5054902;28;1106;-71
2022/06/01 05:52:13;;;;;;;;;;;19.20;65.20;;;;;;5054800;28;1218;-75
2022/06/01 05:54:39;;;;;;;;;;;19.20;65.30;;;;;;5054984;28;1871;-76
2022/06/01 05:57:04;;;;;;;;;;;19.20;65.30;;;;;;5053405;28;1123;-71
2022/06/01 05:59:30;;;;;;;;;;;19.20;65.30;;;;;;5054710;28;1246;-72
2022/06/01 06:01:55;;;;;;;;;;;19.20;65.30;;;;;;5053345;28;1184;-73
2022/06/01 06:04:21;;;;;;;;;;;19.20;65.30;;;;;;5053378;28;1202;-71
2022/06/01 06:06:46;;;;;;;;;;;19.20;65.30;;;;;;5054504;28;1305;-72
2022/06/01 06:09:12;;;;;;;;;;;19.20;65.30;;;;;;5053050;28;1207;-71
2022/06/01 06:11:38;;;;;;;;;;;19.20;65.30;;;;;;5052446;28;1310;-70
2022/06/01 06:14:04;;;;;;;;;;;19.20;65.30;;;;;;5053239;28;1878;-72
2022/06/01 06:16:30;;;;;;;;;;;19.20;65.30;;;;;;5052952;28;1380;-71
2022/06/01 06:18:58;;;;;;;;;;;19.20;65.40;;;;;;5053131;28;1511;-72
2022/06/01 06:21:24;;;;;;;;;;;19.20;65.40;;;;;;5053976;28;1311;-73
2022/06/01 06:23:50;;;;;;;;;;;19.20;65.40;;;;;;5055007;28;1075;-73
2022/06/01 06:26:16;;;;;;;;;;;19.20;65.40;;;;;;5035672;28;1172;-71
2022/06/01 06:28:43;;;;;;;;;;;19.20;65.40;;;;;;5052695;28;1305;-71
2022/06/01 06:31:08;;;;;;;;;;;19.20;65.40;;;;;;5048312;28;1507;-73
2022/06/01 06:33:33;;;;;;;;;;;19.20;65.40;;;;;;5053814;28;1957;-71
2022/06/01 06:36:04;;;;;;;;;;;19.20;65.40;;;;;;5052202;28;1375;-71
2022/06/01 06:38:30;;;;;;;;;;;19.20;65.40;;;;;;5055616;28;1063;-73
2022/06/01 06:40:55;;;;;;;;;;;19.20;65.40;;;;;;5070289;28;1451;-71
2022/06/01 06:43:22;;;;;;;;;;;19.20;65.40;;;;;;5050616;28;1366;-73
2022/06/01 06:45:48;;;;;;;;;;;19.20;65.50;;;;;;5053972;28;1376;-74
2022/06/01 06:48:13;;;;;;;;;;;19.20;65.40;;;;;;5052821;28;1127;-74
2022/06/01 06:50:39;;;;;;;;;;;19.20;65.40;;;;;;5053458;28;1269;-74
2022/06/01 06:53:04;;;;;;;;;;;19.20;65.50;;;;;;5050417;28;1898;-73
2022/06/01 06:55:30;;;;;;;;;;;19.20;65.50;;;;;;5053963;28;1328;-76
2022/06/01 06:57:55;;;;;;;;;;;19.10;66.20;;;;;;5053658;28;1048;-74
2022/06/01 07:00:21;;;;;;;;;;;19.20;65.50;;;;;;5052232;28;1339;-74
2022/06/01 07:02:46;;;;;;;;;;;19.20;65.50;;;;;;5053432;28;1412;-71
2022/06/01 07:06:08;;;;;;;;;;;19.20;65.50;;;;;;5052287;28;1429;-73
2022/06/01 07:07:57;;;;;;;;;;;19.20;65.50;;;;;;5051888;28;1730;-72
2022/06/01 07:10:22;;;;;;;;;;;19.20;65.50;;;;;;5050942;28;1189;-72
2022/06/01 07:12:48;;;;;;;;;;;19.10;65.40;;;;;;5045793;28;1963;-73
2022/06/01 07:15:13;;;;;;;;;;;19.10;65.40;;;;;;5046502;28;1307;-73
2022/06/01 07:17:39;;;;;;;;;;;19.20;65.50;;;;;;5047444;28;1150;-72
2022/06/01 07:20:04;;;;;;;;;;;19.10;65.50;;;;;;5048455;28;1214;-73
2022/06/01 07:22:30;;;;;;;;;;;19.20;65.60;;;;;;5045954;28;1803;-72
2022/06/01 07:24:55;;;;;;;;;;;19.20;65.60;;;;;;5049686;28;1042;-72
2022/06/01 07:27:21;;;;;;;;;;;19.20;65.80;;;;;;5066318;28;1850;-72
2022/06/01 07:29:46;;;;;;;;;;;19.20;65.90;;;;;;5052005;28;2020;-72
2022/06/01 07:32:12;;;;;;;;;;;19.20;66.00;;;;;;5047067;28;2042;-72
2022/06/01 07:34:37;;;;;;;;;;;19.20;66.10;;;;;;5041289;28;1890;-72
2022/06/01 07:43:05;;;;;;;;;;;19.30;66.20;;;;;;5039263;28;1165;-73
2022/06/01 07:45:16;;;;;;;;;;;19.40;66.50;;;;;;5051597;28;1299;-72
2022/06/01 07:47:42;;;;;;;;;;;19.40;66.40;;;;;;5052717;28;1118;-72
2022/06/01 07:50:08;;;;;;;;;;;19.40;66.50;;;;;;5034672;28;1225;-72
2022/06/01 07:52:34;;;;;;;;;;;19.40;66.50;;;;;;5051469;28;1189;-72
2022/06/01 07:54:59;;;;;;;;;;;19.40;66.50;;;;;;5034757;28;1890;-72
2022/06/01 07:57:25;;;;;;;;;;;19.40;66.40;;;;;;5052574;28;1066;-72
2022/06/01 07:59:50;;;;;;;;;;;19.50;66.50;;;;;;5051180;28;1373;-72
2022/06/01 08:02:15;;;;;;;;;;;19.50;66.60;;;;;;5051115;28;1295;-73
2022/06/01 08:04:41;;;;;;;;;;;19.50;66.60;;;;;;5051403;28;1081;-72
2022/06/01 08:07:06;;;;;;;;;;;19.50;66.70;;;;;;5052645;28;1095;-71
2022/06/01 08:09:32;;;;;;;;;;;19.50;66.70;;;;;;5051261;28;1095;-72
2022/06/01 08:14:42;;;;;;;;;;;19.50;66.70;;;;;;5072000;28;1989;-70
2022/06/01 08:17:07;;;;;;;;;;;19.50;66.80;;;;;;5072496;28;1609;-71
2022/06/01 08:19:32;;;;;;;;;;;19.50;66.80;;;;;;5067041;28;1615;-70
2022/06/01 08:21:58;;;;;;;;;;;19.60;66.80;;;;;;5054400;28;1352;-71
2022/06/01 08:24:23;;;;;;;;;;;19.50;66.80;;;;;;5038077;28;1402;-70
2022/06/01 08:26:49;;;;;;;;;;;19.50;66.90;;;;;;5054401;28;1566;-70
2022/06/01 08:29:14;;;;;;;;;;;19.50;66.90;;;;;;5072460;28;1665;-71
2022/06/01 08:31:40;;;;;;;;;;;19.60;67.10;;;;;;5072123;28;1391;-71
2022/06/01 08:34:05;;;;;;;;;;;19.60;67.00;;;;;;5072209;28;1902;-71
2022/06/01 08:36:31;;;;;;;;;;;19.60;67.10;;;;;;5072112;28;1684;-71
2022/06/01 08:38:57;;;;;;;;;;;19.60;67.10;;;;;;5072235;28;1377;-70
2022/06/01 08:41:23;;;;;;;;;;;19.60;67.20;;;;;;5071808;28;1711;-71
2022/06/01 08:43:56;;;;;;;;;;;19.60;67.20;;;;;;5054424;28;1700;-71
2022/06/01 08:46:22;;;;;;;;;;;19.60;68.00;;;;;;5037793;28;1241;-70
2022/06/01 08:48:48;;;;;;;;;;;19.60;67.30;;;;;;5054446;28;1339;-72
2022/06/01 08:51:14;;;;;;;;;;;19.60;67.30;;;;;;5072005;28;1365;-71
2022/06/01 08:53:39;;;;;;;;;;;19.60;67.40;;;;;;5072369;28;1963;-71
2022/06/01 08:56:09;;;;;;;;;;;19.60;67.40;;;;;;5054201;28;1374;-71
2022/06/01 08:58:38;;;;;;;;;;;19.60;67.50;;;;;;5072540;28;1450;-71
2022/06/01 09:01:22;;;;;;;;;;;19.60;67.50;;;;;;5074672;28;1625;-71
2022/06/01 09:03:47;;;;;;;;;;;19.60;67.60;;;;;;5080681;28;1374;-71
2022/06/01 09:06:15;;;;;;;;;;;19.60;67.60;;;;;;5057731;28;1485;-71
2022/06/01 09:09:03;;;;;;;;;;;19.60;68.50;;;;;;5057675;28;1616;-70
2022/06/01 09:11:32;;;;;;;;;;;19.60;67.80;;;;;;5064648;28;1418;-71
2022/06/01 09:14:04;;;;;;;;;;;19.60;67.70;;;;;;5055784;28;1935;-71
2022/06/01 09:16:33;;;;;;;;;;;19.50;67.70;;;;;;5074226;28;1481;-71
2022/06/01 09:18:58;;;;;;;;;;;19.50;67.80;;;;;;5079762;28;1537;-71
2022/06/01 09:24:10;;;;;;;;;;;19.60;68.10;;;;;;5060368;28;1438;-71
2022/06/01 09:26:35;;;;;;;;;;;19.60;68.10;;;;;;5057413;28;1509;-71
2022/06/01 09:29:02;;;;;;;;;;;19.60;68.20;;;;;;5057351;28;1357;-71
2022/06/01 09:31:38;;;;;;;;;;;19.60;68.30;;;;;;5056965;28;1509;-72
2022/06/01 09:34:14;;;;;;;;;;;19.60;68.40;;;;;;5057223;28;1902;-71
2022/06/01 09:36:47;;;;;;;;;;;19.60;68.40;;;;;;5040707;28;1414;-71
2022/06/01 09:39:16;;;;;;;;;;;19.60;68.50;;;;;;5054001;28;1170;-71
2022/06/01 09:41:42;;;;;;;;;;;19.60;68.70;;;;;;5057109;28;1274;-70
2022/06/01 09:44:08;;;;;;;;;;;19.60;68.60;;;;;;5057600;28;1476;-70
2022/06/01 09:46:35;;;;;;;;;;;19.60;68.60;;;;;;5075164;28;1298;-71
2022/06/01 09:49:19;;;;;;;;;;;19.60;68.50;;;;;;5075260;28;943;-71
2022/06/01 09:51:45;;;;;;;;;;;19.60;68.70;;;;;;5075058;28;1219;-71
2022/06/01 09:54:20;;;;;;;;;;;19.60;68.80;;;;;;5057022;28;1963;-72
2022/06/01 09:56:47;;;;;;;;;;;19.60;69.00;;;;;;5074822;28;1126;-71
2022/06/01 10:08:02;;;;;;;;;;;19.70;68.50;;;;;;5055896;28;1536;-68
2022/06/01 10:10:27;;;;;;;;;;;19.70;68.80;;;;;;5054813;28;1733;-70
2022/06/01 10:12:54;;;;;;;;;;;19.80;68.80;;;;;;5073192;28;1910;-70
2022/06/01 10:15:30;;;;;;;;;;;19.80;68.70;;;;;;5056407;28;1396;-70
2022/06/01 10:17:56;;;;;;;;;;;19.80;68.60;;;;;;5058561;28;1455;-70
2022/06/01 10:20:41;;;;;;;;;;;19.70;68.50;;;;;;5065029;28;1709;-73
2022/06/01 10:23:06;;;;;;;;;;;19.70;68.50;;;;;;5074333;28;1204;-73
2022/06/01 10:25:46;;;;;;;;;;;19.70;68.60;;;;;;5071825;28;1973;-72
2022/06/01 10:28:15;;;;;;;;;;;19.70;68.60;;;;;;5056301;28;1513;-71
2022/06/01 10:30:43;;;;;;;;;;;19.70;68.60;;;;;;5052261;28;1402;-70
2022/06/01 10:33:12;;;;;;;;;;;19.70;68.80;;;;;;5044950;28;1961;-71
2022/06/01 10:35:44;;;;;;;;;;;19.70;69.10;;;;;;5074350;28;1446;-71
2022/06/01 10:38:12;;;;;;;;;;;19.80;69.20;;;;;;5055095;28;1491;-72
2022/06/01 10:41:07;;;;;;;;;;;19.80;69.30;;;;;;5056061;28;1260;-72
2022/06/01 10:43:36;;;;;;;;;;;19.80;69.10;;;;;;5056375;28;1334;-73
2022/06/01 10:46:09;;;;;;;;;;;19.80;69.20;;;;;;5056081;28;1460;-72
2022/06/01 10:48:39;;;;;;;;;;;19.80;69.20;;;;;;5056044;28;1383;-73
2022/06/01 10:51:07;;;;;;;;;;;19.80;69.20;;;;;;5056774;28;872;-73
2022/06/01 10:53:51;;;;;;;;;;;19.80;69.30;;;;;;5056042;28;1957;-71
2022/06/01 10:56:17;;;;;;;;;;;19.80;69.50;;;;;;5074022;28;840;-71
2022/06/01 10:58:43;;;;;;;;;;;19.80;69.50;;;;;;5056001;28;1466;-71
2022/06/01 11:01:10;;;;;;;;;;;19.80;69.50;;;;;;5055939;28;1155;-71
2022/06/01 11:03:38;;;;;;;;;;;19.80;69.60;;;;;;5085875;28;1409;-73
2022/06/01 11:06:04;;;;;;;;;;;19.80;69.70;;;;;;5078554;28;1279;-72
2022/06/01 11:08:35;;;;;;;;;;;19.80;70.20;;;;;;5073560;28;1356;-73
2022/06/01 11:11:04;;;;;;;;;;;19.80;70.20;;;;;;5055465;28;1381;-71
2022/06/01 11:13:45;;;;;;;;;;;19.80;70.10;;;;;;5055391;28;1969;-70
2022/06/01 11:16:14;;;;;;;;;;;19.80;70.30;;;;;;5073360;28;1086;-71
2022/06/01 11:18:43;;;;;;;;;;;19.80;70.20;;;;;;5046807;28;1363;-70
2022/06/01 11:21:13;;;;;;;;;;;19.80;70.10;;;;;;5056874;28;1366;-71
2022/06/01 11:23:54;;;;;;;;;;;19.80;70.10;;;;;;5072994;28;1074;-72
2022/06/01 11:26:31;;;;;;;;;;;19.80;70.10;;;;;;5061083;28;2244;-71
2022/06/01 11:29:15;;;;;;;;;;;19.80;70.00;;;;;;5073549;28;1201;-71
2022/06/01 11:31:41;;;;;;;;;;;19.80;69.90;;;;;;5072446;28;1537;-71
2022/06/01 11:34:09;;;;;;;;;;;19.80;70.00;;;;;;5055650;28;1906;-71
2022/06/01 11:36:47;;;;;;;;;;;19.80;69.90;;;;;;5072747;28;1413;-71
2022/06/01 11:39:29;;;;;;;;;;;19.80;69.90;;;;;;5073062;28;1391;-70
2022/06/01 11:42:03;;;;;;;;;;;19.80;69.90;;;;;;5037945;28;1336;-71
2022/06/01 11:44:30;;;;;;;;;;;19.80;69.80;;;;;;5054991;28;1255;-70
2022/06/01 11:46:59;;;;;;;;;;;19.80;69.80;;;;;;5054631;28;1310;-71
2022/06/01 11:49:32;;;;;;;;;;;19.80;69.80;;;;;;5054959;28;1255;-70
2022/06/01 11:52:11;;;;;;;;;;;19.80;69.80;;;;;;5051124;28;1326;-71
2022/06/01 11:54:36;;;;;;;;;;;19.80;69.90;;;;;;5052152;28;1945;-71
2022/06/01 11:57:21;;;;;;;;;;;19.80;69.90;;;;;;5054731;28;1519;-71
2022/06/01 11:59:47;;;;;;;;;;;19.80;70.00;;;;;;5054677;28;1448;-72
2022/06/01 12:02:17;;;;;;;;;;;19.80;70.20;;;;;;5054386;28;2270;-72
2022/06/01 12:04:53;;;;;;;;;;;19.80;70.50;;;;;;5054169;28;2090;-73
2022/06/01 12:07:25;;;;;;;;;;;19.90;70.20;;;;;;5071662;28;1427;-73
2022/06/01 12:10:03;;;;;;;;;;;19.80;68.20;;;;;;5072263;28;1302;-73
2022/06/01 12:12:34;;;;;;;;;;;19.80;68.50;;;;;;5069873;28;1358;-73
2022/06/01 12:15:16;;;;;;;;;;;19.80;67.90;;;;;;5072377;28;1955;-73
2022/06/01 12:17:58;;;;;;;;;;;19.80;66.20;;;;;;5037546;28;1335;-73
2022/06/01 12:20:33;;;;;;;;;;;19.70;66.70;;;;;;5056196;28;1865;-73
2022/06/01 12:28:51;;;;;;;;;;;19.70;66.40;;;;;;5051380;28;1109;-73
2022/06/01 12:31:27;;;;;;;;;;;19.70;66.00;;;;;;5056449;28;1494;-72
2022/06/01 12:33:59;;;;;;;;;;;19.60;65.50;;;;;;5053529;28;1905;-69
2022/06/01 12:36:25;;;;;;;;;;;19.60;65.10;;;;;;5057355;28;1333;-69
2022/06/01 12:38:50;;;;;;;;;;;19.60;64.80;;;;;;5057301;28;2006;-69
2022/06/01 12:41:17;;;;;;;;;;;19.60;64.90;;;;;;5070840;28;1906;-69
2022/06/01 12:43:47;;;;;;;;;;;19.60;64.90;;;;;;5073777;28;1459;-69
2022/06/01 12:46:43;;;;;;;;;;;19.60;64.60;;;;;;5057220;28;1126;-70
2022/06/01 12:49:29;;;;;;;;;;;19.60;63.60;;;;;;5056083;28;1902;-69
2022/06/01 12:51:55;;;;;;;;;;;19.60;63.50;;;;;;5073853;28;1309;-69
2022/06/01 12:54:43;;;;;;;;;;;19.60;63.40;;;;;;5057363;28;1955;-70
2022/06/01 12:57:12;;;;;;;;;;;19.60;62.00;;;;;;5057098;28;1307;-71
2022/06/01 12:59:38;;;;;;;;;;;19.50;63.00;;;;;;5057953;28;1305;-71
2022/06/01 13:02:04;;;;;;;;;;;19.50;63.20;;;;;;5057184;28;1286;-71
2022/06/01 13:04:30;;;;;;;;;;;19.60;62.70;;;;;;5061568;28;1230;-70
2022/06/01 13:06:55;;;;;;;;;;;19.60;63.10;;;;;;5075570;28;1336;-70
2022/06/01 13:09:22;;;;;;;;;;;19.50;62.80;;;;;;5057419;28;1436;-70
2022/06/01 13:11:57;;;;;;;;;;;19.50;62.60;;;;;;5057191;28;1409;-71
2022/06/01 13:14:25;;;;;;;;;;;19.50;62.40;;;;;;5075171;28;1955;-71
2022/06/01 13:16:51;;;;;;;;;;;19.50;61.30;;;;;;5054502;28;1063;-72
2022/06/01 13:19:20;;;;;;;;;;;19.50;60.70;;;;;;5051893;28;1751;-74
2022/06/01 13:21:46;;;;;;;;;;;19.50;60.10;;;;;;5070328;28;1275;-68
2022/06/01 13:24:11;;;;;;;;;;;19.40;60.00;;;;;;5063514;28;1286;-71
2022/06/01 13:26:38;;;;;;;;;;;19.40;60.30;;;;;;5075191;28;1117;-72
2022/06/01 13:29:09;;;;;;;;;;;19.40;60.60;;;;;;5056725;28;1067;-71
2022/06/01 13:31:37;;;;;;;;;;;19.40;60.70;;;;;;5050215;28;1346;-71
2022/06/01 13:34:04;;;;;;;;;;;19.40;61.20;;;;;;5072316;28;1906;-70
2022/06/01 13:36:30;;;;;;;;;;;19.40;61.60;;;;;;5056692;28;1270;-71
2022/06/01 13:39:04;;;;;;;;;;;19.40;61.70;;;;;;5057337;28;1298;-70
2022/06/01 13:41:34;;;;;;;;;;;19.40;61.70;;;;;;5039629;28;1378;-70
2022/06/01 13:44:02;;;;;;;;;;;19.40;61.90;;;;;;5056994;28;1295;-71
2022/06/01 13:46:41;;;;;;;;;;;19.40;61.90;;;;;;5074750;28;1540;-72
2022/06/01 13:49:11;;;;;;;;;;;19.40;61.80;;;;;;5056787;28;1285;-72
2022/06/01 13:51:38;;;;;;;;;;;19.40;61.90;;;;;;5074344;28;1322;-71
2022/06/01 13:54:17;;;;;;;;;;;19.40;62.00;;;;;;5056543;28;1953;-71
2022/06/01 13:56:43;;;;;;;;;;;19.40;62.00;;;;;;5050573;28;1393;-71
2022/06/01 13:59:12;;;;;;;;;;;19.40;61.80;;;;;;5032643;28;1485;-72
2022/06/01 14:01:41;;;;;;;;;;;19.40;61.70;;;;;;5073987;28;1309;-69
2022/06/01 14:04:21;;;;;;;;;;;19.40;61.50;;;;;;5060270;28;2042;-69
2022/06/01 14:06:50;;;;;;;;;;;19.40;61.50;;;;;;5074697;28;1672;-69
2022/06/01 14:09:15;;;;;;;;;;;19.40;61.30;;;;;;5056652;28;1704;-71
2022/06/01 14:11:41;;;;;;;;;;;19.40;61.00;;;;;;5074087;28;1321;-68
2022/06/01 14:14:19;;;;;;;;;;;19.40;60.80;;;;;;5092810;22;3594;-70
2022/06/01 14:16:49;;;;;;;;;;;19.40;60.30;;;;;;5070314;28;1031;-71
2022/06/01 14:19:14;;;;;;;;;;;19.40;60.30;;;;;;5071129;28;1135;-71
2022/06/01 14:21:39;;;;;;;;;;;19.40;60.20;;;;;;5061171;28;1306;-71
2022/06/01 14:24:05;;;;;;;;;;;19.40;60.40;;;;;;5074057;28;1280;-71
2022/06/01 14:29:15;;;;;;;;;;;19.40;61.20;;;;;;5073908;28;1019;-71
2022/06/01 14:31:40;;;;;;;;;;;19.40;61.50;;;;;;5073732;28;1373;-70
2022/06/01 14:34:11;;;;;;;;;;;19.40;61.80;;;;;;5059265;28;1971;-70
2022/06/01 14:36:37;;;;;;;;;;;19.40;61.90;;;;;;5074052;28;1062;-72
2022/06/01 14:39:02;;;;;;;;;;;19.30;61.80;;;;;;5072581;28;1348;-72
2022/06/01 14:41:28;;;;;;;;;;;19.40;62.00;;;;;;5072599;28;1426;-72
2022/06/01 14:43:55;;;;;;;;;;;19.40;62.10;;;;;;5073615;28;1368;-72
2022/06/01 14:46:20;;;;;;;;;;;19.40;62.30;;;;;;5072449;28;1375;-72
2022/06/01 14:48:45;;;;;;;;;;;19.30;62.10;;;;;;5055700;28;1392;-72
2022/06/01 14:51:11;;;;;;;;;;;19.40;62.20;;;;;;5073826;28;1117;-71
2022/06/01 14:53:37;;;;;;;;;;;19.30;62.10;;;;;;5073556;28;1905;-70
2022/06/01 14:56:03;;;;;;;;;;;19.40;62.20;;;;;;5072489;28;1305;-72
2022/06/01 14:58:29;;;;;;;;;;;19.40;62.30;;;;;;5073094;28;1074;-71
2022/06/01 15:00:54;;;;;;;;;;;19.40;62.30;;;;;;5073142;28;1251;-70
2022/06/01 15:03:25;;;;;;;;;;;19.40;62.10;;;;;;5076822;28;1336;-69
2022/06/01 15:05:50;;;;;;;;;;;19.30;62.00;;;;;;5072670;28;1301;-70
2022/06/01 15:08:15;;;;;;;;;;;19.40;62.10;;;;;;5073690;28;1304;-70
2022/06/01 15:10:41;;;;;;;;;;;19.40;62.20;;;;;;5071887;28;1352;-71
2022/06/01 15:13:06;;;;;;;;;;;19.40;62.10;;;;;;5071719;28;1914;-69